Albion, Idaho
Current Conditions -  °F | °C
As of 5:53 PM on Sunday 21 Dec 2014 (Local Time) from KBYI Reporting Station
Scattered Clouds Scattered Clouds  
Wind Chill: 31°   Ceiling: Unl
Heat Index: 40°   Visibility: 10mi
Dew Point: 36°   Wind: 16mph
Humidity: 86%   Direction: 260°W
Pressure: 29.96"   Gusts: 30mph
Location:  42.41°N, 113.58°W
Report Text: KBYI 220053Z AUTO 26014G26KT 10SM FEW009 SCT055 SCT095 04/02 A2996 RMK AO2 PK WND 25031/0039 RAE30 SLP146 P0000 T00440022
Loading
Personal Weather Stations






























Interactive Weather Map New forecast layout! Learn more

10-Day Weather Forecast

Advertisements
Track Severe Weather on mobile